createdAt,value
2019-02-27T00:00:57.982Z,6.17
2019-02-27T00:11:57.925Z,5.59
2019-02-27T00:22:56.600Z,5.08
2019-02-27T00:33:59.474Z,4.68
2019-02-27T00:45:00.111Z,4.26
2019-02-27T00:56:00.647Z,4.01
2019-02-27T01:06:57.878Z,3.84
2019-02-27T01:17:57.467Z,3.68
2019-02-27T01:28:54.730Z,3.98
2019-02-27T01:39:54.418Z,4.11
2019-02-27T01:50:48.754Z,3.80
2019-02-27T02:01:51.137Z,3.50
2019-02-27T02:12:51.730Z,3.65
2019-02-27T02:23:50.405Z,4.34
2019-02-27T02:34:49.127Z,4.48
2019-02-27T02:45:43.640Z,3.98
2019-02-27T02:56:43.823Z,4.01
2019-02-27T03:07:44.705Z,4.16
2019-02-27T03:18:46.803Z,4.08
2019-02-27T03:29:25.490Z,4.18
2019-02-27T03:40:29.441Z,5.06
2019-02-27T03:51:31.729Z,5.63
2019-02-27T04:02:34.189Z,5.23
2019-02-27T04:13:31.525Z,5.18
2019-02-27T04:24:29.186Z,4.72
2019-02-27T04:35:30.609Z,4.02
2019-02-27T04:46:28.012Z,3.80
2019-02-27T04:57:30.807Z,3.41
2019-02-27T05:08:36.542Z,4.48
2019-02-27T05:19:37.235Z,4.73
2019-02-27T05:30:36.614Z,4.62
2019-02-27T05:41:36.623Z,4.10
2019-02-27T05:52:35.563Z,3.80
2019-02-27T06:03:34.045Z,3.82
2019-02-27T06:14:31.328Z,4.44
2019-02-27T06:25:34.330Z,4.56
2019-02-27T06:36:41.863Z,5.00
2019-02-27T06:47:41.112Z,5.49
2019-02-27T06:58:47.552Z,6.13
2019-02-27T07:09:54.540Z,6.91
2019-02-27T07:20:58.306Z,7.59
2019-02-27T07:31:58.527Z,8.07
2019-02-27T07:42:57.097Z,8.52
2019-02-27T07:53:48.613Z,8.94
2019-02-27T08:04:54.742Z,9.35
2019-02-27T08:15:53.321Z,9.68
2019-02-27T08:26:57.376Z,10.26
2019-02-27T08:38:02.904Z,11.05
2019-02-27T08:48:59.684Z,11.57
2019-02-27T09:00:01.897Z,11.29
2019-02-27T09:11:06.685Z,11.26
2019-02-27T09:22:02.467Z,11.35
2019-02-27T09:33:04.627Z,11.86
2019-02-27T09:43:44.130Z,12.44
2019-02-27T09:54:46.626Z,12.45
2019-02-27T10:05:48.201Z,12.59
2019-02-27T10:16:45.463Z,13.02
2019-02-27T10:27:47.268Z,13.33
2019-02-27T10:38:51.243Z,13.91
2019-02-27T10:49:52.686Z,14.46
2019-02-27T11:00:58.059Z,14.57
2019-02-27T11:12:00.468Z,15.30
2019-02-27T11:23:00.907Z,16.95
2019-02-27T11:34:05.134Z,17.57
2019-02-27T11:45:07.563Z,17.48
2019-02-27T11:56:07.503Z,16.90
2019-02-27T12:07:06.985Z,17.02
2019-02-27T12:17:44.860Z,17.28
2019-02-27T12:28:23.550Z,17.92
2019-02-27T12:39:06.611Z,18.35
2019-02-27T12:49:42.499Z,18.95
2019-02-27T13:00:23.644Z,18.16
2019-02-27T13:11:08.004Z,19.08
2019-02-27T13:21:55.866Z,19.65
2019-02-27T13:32:36.691Z,20.10
2019-02-27T13:43:19.732Z,21.23
2019-02-27T13:53:52.770Z,21.21
2019-02-27T14:04:34.989Z,21.16
2019-02-27T14:15:14.021Z,19.63
2019-02-27T14:25:55.582Z,21.14
2019-02-27T14:36:33.910Z,19.86
2019-02-27T14:47:01.077Z,18.68
2019-02-27T14:57:41.767Z,18.58
2019-02-27T15:08:20.315Z,17.82
2019-02-27T15:18:35.819Z,17.35
2019-02-27T15:29:12.051Z,17.26
2019-02-27T15:39:55.655Z,16.84
2019-02-27T15:50:56.334Z,15.43
2019-02-27T16:01:38.510Z,15.97
2019-02-27T16:12:17.018Z,15.51
2019-02-27T16:23:16.002Z,13.52
2019-02-27T16:34:16.932Z,12.53
2019-02-27T16:45:14.470Z,11.31
2019-02-27T16:56:12.918Z,10.80
2019-02-27T17:07:06.223Z,10.43
2019-02-27T17:18:04.811Z,9.63
2019-02-27T17:29:01.813Z,9.17
2019-02-27T17:40:05.397Z,8.98
2019-02-27T17:51:06.491Z,8.60
2019-02-27T18:02:01.793Z,8.37
2019-02-27T18:13:01.468Z,8.19
2019-02-27T18:23:58.797Z,7.81
2019-02-27T18:35:00.261Z,7.19
2019-02-27T18:45:56.596Z,6.62
2019-02-27T18:56:49.575Z,6.27
2019-02-27T19:07:53.825Z,6.06
2019-02-27T19:18:34.109Z,5.72
2019-02-27T19:29:32.054Z,5.38
2019-02-27T19:40:31.994Z,5.21
2019-02-27T19:51:14.294Z,5.00
2019-02-27T20:02:11.753Z,4.77
2019-02-27T20:13:12.501Z,4.59
2019-02-27T20:24:14.430Z,4.29
2019-02-27T20:35:14.087Z,4.28
2019-02-27T20:46:10.389Z,4.18
2019-02-27T20:57:09.241Z,4.23
2019-02-27T21:08:13.104Z,3.84
2019-02-27T21:19:10.470Z,3.90
2019-02-27T21:30:17.728Z,3.44
2019-02-27T21:41:21.360Z,3.39
2019-02-27T21:52:22.478Z,3.28
2019-02-27T22:03:19.947Z,2.98
2019-02-27T22:14:16.884Z,2.84
2019-02-27T22:25:14.137Z,2.77
2019-02-27T22:36:15.726Z,2.80
2019-02-27T22:47:18.448Z,2.62
2019-02-27T22:58:21.605Z,2.32
2019-02-27T23:09:25.902Z,2.30
2019-02-27T23:20:28.216Z,2.35
2019-02-27T23:31:27.530Z,2.14
2019-02-27T23:42:29.785Z,1.77
2019-02-27T23:53:31.907Z,1.77
